sensor_id;sensor_type;location;lat;lon;timestamp;P1;durP1;ratioP1;P2;durP2;ratioP2
6725;SDS011;3400;48.506;11.692;2023-09-08T00:01:37;5.10;;;3.93;;
6725;SDS011;3400;48.506;11.692;2023-09-08T00:04:05;4.63;;;4.23;;
6725;SDS011;3400;48.506;11.692;2023-09-08T00:06:33;7.40;;;4.30;;
6725;SDS011;3400;48.506;11.692;2023-09-08T00:09:02;4.17;;;3.77;;
6725;SDS011;3400;48.506;11.692;2023-09-08T00:11:30;4.20;;;3.80;;
6725;SDS011;3400;48.506;11.692;2023-09-08T00:13:58;5.30;;;4.10;;
6725;SDS011;3400;48.506;11.692;2023-09-08T00:16:28;5.80;;;3.90;;
6725;SDS011;3400;48.506;11.692;2023-09-08T00:18:56;6.40;;;4.07;;
6725;SDS011;3400;48.506;11.692;2023-09-08T00:21:24;4.53;;;4.13;;
6725;SDS011;3400;48.506;11.692;2023-09-08T00:23:52;7.43;;;4.20;;
6725;SDS011;3400;48.506;11.692;2023-09-08T00:26:20;4.07;;;3.70;;
6725;SDS011;3400;48.506;11.692;2023-09-08T00:28:48;3.93;;;3.53;;
6725;SDS011;3400;48.506;11.692;2023-09-08T00:31:16;4.70;;;4.30;;
6725;SDS011;3400;48.506;11.692;2023-09-08T00:33:45;4.57;;;4.03;;
6725;SDS011;3400;48.506;11.692;2023-09-08T00:36:13;4.63;;;4.23;;
6725;SDS011;3400;48.506;11.692;2023-09-08T00:38:41;4.83;;;4.10;;
6725;SDS011;3400;48.506;11.692;2023-09-08T00:41:09;4.07;;;3.67;;
6725;SDS011;3400;48.506;11.692;2023-09-08T00:43:37;4.57;;;3.70;;
6725;SDS011;3400;48.506;11.692;2023-09-08T00:46:05;4.80;;;4.30;;
6725;SDS011;3400;48.506;11.692;2023-09-08T00:48:33;4.83;;;4.10;;
6725;SDS011;3400;48.506;11.692;2023-09-08T00:51:03;4.50;;;4.10;;
6725;SDS011;3400;48.506;11.692;2023-09-08T00:53:33;4.80;;;3.90;;
6725;SDS011;3400;48.506;11.692;2023-09-08T00:56:01;5.13;;;3.97;;
6725;SDS011;3400;48.506;11.692;2023-09-08T00:58:29;4.53;;;3.87;;
6725;SDS011;3400;48.506;11.692;2023-09-08T01:00:58;4.00;;;3.60;;
6725;SDS011;3400;48.506;11.692;2023-09-08T01:03:26;6.13;;;4.93;;
6725;SDS011;3400;48.506;11.692;2023-09-08T01:05:54;4.57;;;4.17;;
6725;SDS011;3400;48.506;11.692;2023-09-08T01:08:25;5.63;;;4.37;;
6725;SDS011;3400;48.506;11.692;2023-09-08T01:10:54;4.37;;;3.97;;
6725;SDS011;3400;48.506;11.692;2023-09-08T01:13:22;4.67;;;4.23;;
6725;SDS011;3400;48.506;11.692;2023-09-08T01:15:50;5.13;;;4.20;;
6725;SDS011;3400;48.506;11.692;2023-09-08T01:18:17;4.70;;;4.30;;
6725;SDS011;3400;48.506;11.692;2023-09-08T01:20:54;4.80;;;4.37;;
6725;SDS011;3400;48.506;11.692;2023-09-08T01:23:28;6.80;;;4.53;;
6725;SDS011;3400;48.506;11.692;2023-09-08T01:26:03;4.53;;;4.13;;
6725;SDS011;3400;48.506;11.692;2023-09-08T01:28:31;5.40;;;4.73;;
6725;SDS011;3400;48.506;11.692;2023-09-08T01:31:00;4.83;;;4.30;;
6725;SDS011;3400;48.506;11.692;2023-09-08T01:33:28;6.10;;;4.70;;
6725;SDS011;3400;48.506;11.692;2023-09-08T01:35:56;5.10;;;4.50;;
6725;SDS011;3400;48.506;11.692;2023-09-08T01:38:25;5.10;;;4.57;;
6725;SDS011;3400;48.506;11.692;2023-09-08T01:40:53;6.53;;;4.27;;
6725;SDS011;3400;48.506;11.692;2023-09-08T01:43:23;5.60;;;4.97;;
6725;SDS011;3400;48.506;11.692;2023-09-08T01:45:51;6.70;;;5.50;;
6725;SDS011;3400;48.506;11.692;2023-09-08T01:48:19;5.53;;;4.50;;
6725;SDS011;3400;48.506;11.692;2023-09-08T01:50:47;5.70;;;4.63;;
6725;SDS011;3400;48.506;11.692;2023-09-08T01:53:15;5.27;;;4.77;;
6725;SDS011;3400;48.506;11.692;2023-09-08T01:55:42;5.00;;;4.43;;
6725;SDS011;3400;48.506;11.692;2023-09-08T01:58:11;5.17;;;3.97;;
6725;SDS011;3400;48.506;11.692;2023-09-08T02:00:41;4.30;;;4.00;;
6725;SDS011;3400;48.506;11.692;2023-09-08T02:03:09;7.30;;;4.10;;
6725;SDS011;3400;48.506;11.692;2023-09-08T02:05:36;6.73;;;4.77;;
6725;SDS011;3400;48.506;11.692;2023-09-08T02:08:05;6.67;;;5.20;;
6725;SDS011;3400;48.506;11.692;2023-09-08T02:10:33;5.67;;;4.70;;
6725;SDS011;3400;48.506;11.692;2023-09-08T02:13:01;5.53;;;4.90;;
6725;SDS011;3400;48.506;11.692;2023-09-08T02:15:29;4.50;;;4.07;;
6725;SDS011;3400;48.506;11.692;2023-09-08T02:17:58;6.33;;;4.73;;
6725;SDS011;3400;48.506;11.692;2023-09-08T02:20:26;5.33;;;4.53;;
6725;SDS011;3400;48.506;11.692;2023-09-08T02:22:54;5.10;;;4.60;;
6725;SDS011;3400;48.506;11.692;2023-09-08T02:25:22;5.23;;;4.73;;
6725;SDS011;3400;48.506;11.692;2023-09-08T02:27:50;5.53;;;4.20;;
6725;SDS011;3400;48.506;11.692;2023-09-08T02:30:18;5.40;;;4.80;;
6725;SDS011;3400;48.506;11.692;2023-09-08T02:32:47;6.20;;;5.13;;
6725;SDS011;3400;48.506;11.692;2023-09-08T02:35:16;5.97;;;4.23;;
6725;SDS011;3400;48.506;11.692;2023-09-08T02:37:44;5.40;;;4.90;;
6725;SDS011;3400;48.506;11.692;2023-09-08T02:40:12;6.53;;;4.93;;
6725;SDS011;3400;48.506;11.692;2023-09-08T02:42:40;5.30;;;4.80;;
6725;SDS011;3400;48.506;11.692;2023-09-08T02:45:09;5.53;;;4.40;;
6725;SDS011;3400;48.506;11.692;2023-09-08T02:47:37;6.80;;;5.10;;
6725;SDS011;3400;48.506;11.692;2023-09-08T02:50:06;6.13;;;4.73;;
6725;SDS011;3400;48.506;11.692;2023-09-08T02:52:35;4.80;;;4.27;;
6725;SDS011;3400;48.506;11.692;2023-09-08T02:55:03;4.63;;;4.23;;
6725;SDS011;3400;48.506;11.692;2023-09-08T02:57:31;5.13;;;4.63;;
6725;SDS011;3400;48.506;11.692;2023-09-08T02:59:59;5.17;;;4.70;;
6725;SDS011;3400;48.506;11.692;2023-09-08T03:02:28;6.43;;;5.07;;
6725;SDS011;3400;48.506;11.692;2023-09-08T03:04:56;5.17;;;4.67;;
6725;SDS011;3400;48.506;11.692;2023-09-08T03:07:24;8.87;;;4.80;;
6725;SDS011;3400;48.506;11.692;2023-09-08T03:09:53;7.60;;;4.80;;
6725;SDS011;3400;48.506;11.692;2023-09-08T03:12:21;5.80;;;4.87;;
6725;SDS011;3400;48.506;11.692;2023-09-08T03:14:49;7.23;;;4.40;;
6725;SDS011;3400;48.506;11.692;2023-09-08T03:17:17;6.13;;;4.80;;
6725;SDS011;3400;48.506;11.692;2023-09-08T03:19:46;4.70;;;4.20;;
6725;SDS011;3400;48.506;11.692;2023-09-08T03:22:14;5.37;;;4.27;;
6725;SDS011;3400;48.506;11.692;2023-09-08T03:24:41;5.87;;;4.93;;
6725;SDS011;3400;48.506;11.692;2023-09-08T03:27:11;6.17;;;4.57;;
6725;SDS011;3400;48.506;11.692;2023-09-08T03:29:39;8.80;;;4.80;;
6725;SDS011;3400;48.506;11.692;2023-09-08T03:32:07;4.97;;;4.57;;
6725;SDS011;3400;48.506;11.692;2023-09-08T03:34:34;6.17;;;4.60;;
6725;SDS011;3400;48.506;11.692;2023-09-08T03:37:06;6.07;;;5.43;;
6725;SDS011;3400;48.506;11.692;2023-09-08T03:39:34;5.90;;;4.40;;
6725;SDS011;3400;48.506;11.692;2023-09-08T03:42:02;6.90;;;4.87;;
6725;SDS011;3400;48.506;11.692;2023-09-08T03:44:32;5.37;;;4.50;;
6725;SDS011;3400;48.506;11.692;2023-09-08T03:47:00;6.13;;;4.70;;
6725;SDS011;3400;48.506;11.692;2023-09-08T03:49:28;7.70;;;5.17;;
6725;SDS011;3400;48.506;11.692;2023-09-08T03:51:57;5.40;;;4.90;;
6725;SDS011;3400;48.506;11.692;2023-09-08T03:54:25;5.47;;;4.97;;
6725;SDS011;3400;48.506;11.692;2023-09-08T03:56:54;5.60;;;5.10;;
6725;SDS011;3400;48.506;11.692;2023-09-08T03:59:22;5.53;;;4.43;;
6725;SDS011;3400;48.506;11.692;2023-09-08T04:01:51;5.13;;;4.63;;
6725;SDS011;3400;48.506;11.692;2023-09-08T04:04:20;6.73;;;5.50;;
6725;SDS011;3400;48.506;11.692;2023-09-08T04:06:48;6.23;;;4.90;;
6725;SDS011;3400;48.506;11.692;2023-09-08T04:09:15;5.90;;;5.07;;
6725;SDS011;3400;48.506;11.692;2023-09-08T04:11:43;7.17;;;5.37;;
6725;SDS011;3400;48.506;11.692;2023-09-08T04:14:11;6.13;;;5.13;;
6725;SDS011;3400;48.506;11.692;2023-09-08T04:16:39;7.20;;;5.73;;
6725;SDS011;3400;48.506;11.692;2023-09-08T04:19:08;6.07;;;5.47;;
6725;SDS011;3400;48.506;11.692;2023-09-08T04:21:36;7.10;;;5.47;;
6725;SDS011;3400;48.506;11.692;2023-09-08T04:24:05;5.60;;;5.10;;
6725;SDS011;3400;48.506;11.692;2023-09-08T04:26:35;8.27;;;5.77;;
6725;SDS011;3400;48.506;11.692;2023-09-08T04:29:04;8.20;;;5.70;;
6725;SDS011;3400;48.506;11.692;2023-09-08T04:31:32;5.90;;;5.30;;
6725;SDS011;3400;48.506;11.692;2023-09-08T04:34:00;6.27;;;5.67;;
6725;SDS011;3400;48.506;11.692;2023-09-08T04:36:29;5.60;;;5.10;;
6725;SDS011;3400;48.506;11.692;2023-09-08T04:38:57;11.60;;;5.90;;
6725;SDS011;3400;48.506;11.692;2023-09-08T04:41:25;5.57;;;5.07;;
6725;SDS011;3400;48.506;11.692;2023-09-08T04:43:54;6.47;;;5.87;;
6725;SDS011;3400;48.506;11.692;2023-09-08T04:46:23;7.67;;;5.57;;
6725;SDS011;3400;48.506;11.692;2023-09-08T04:48:52;11.13;;;5.60;;
6725;SDS011;3400;48.506;11.692;2023-09-08T04:51:22;7.67;;;5.33;;
6725;SDS011;3400;48.506;11.692;2023-09-08T04:53:52;6.70;;;5.60;;
6725;SDS011;3400;48.506;11.692;2023-09-08T04:56:19;7.47;;;5.23;;
6725;SDS011;3400;48.506;11.692;2023-09-08T04:58:47;5.63;;;5.13;;
6725;SDS011;3400;48.506;11.692;2023-09-08T05:01:15;7.50;;;5.57;;
6725;SDS011;3400;48.506;11.692;2023-09-08T05:03:43;7.70;;;5.47;;
6725;SDS011;3400;48.506;11.692;2023-09-08T05:06:12;5.90;;;5.40;;
6725;SDS011;3400;48.506;11.692;2023-09-08T05:08:40;6.00;;;5.40;;
6725;SDS011;3400;48.506;11.692;2023-09-08T05:11:11;6.23;;;5.63;;
6725;SDS011;3400;48.506;11.692;2023-09-08T05:13:39;5.70;;;5.20;;
6725;SDS011;3400;48.506;11.692;2023-09-08T05:16:07;6.13;;;5.60;;
6725;SDS011;3400;48.506;11.692;2023-09-08T05:18:40;8.80;;;5.87;;
6725;SDS011;3400;48.506;11.692;2023-09-08T05:21:09;7.93;;;5.43;;
6725;SDS011;3400;48.506;11.692;2023-09-08T05:23:37;6.67;;;5.77;;
6725;SDS011;3400;48.506;11.692;2023-09-08T05:26:05;7.37;;;5.60;;
6725;SDS011;3400;48.506;11.692;2023-09-08T05:28:35;6.50;;;5.83;;
6725;SDS011;3400;48.506;11.692;2023-09-08T05:31:02;7.73;;;5.63;;
6725;SDS011;3400;48.506;11.692;2023-09-08T05:33:31;5.53;;;5.03;;
6725;SDS011;3400;48.506;11.692;2023-09-08T05:36:00;6.33;;;5.73;;
6725;SDS011;3400;48.506;11.692;2023-09-08T05:38:28;7.60;;;5.73;;
6725;SDS011;3400;48.506;11.692;2023-09-08T05:40:56;6.33;;;5.63;;
6725;SDS011;3400;48.506;11.692;2023-09-08T05:43:25;6.53;;;5.77;;
6725;SDS011;3400;48.506;11.692;2023-09-08T05:45:55;8.23;;;5.63;;
6725;SDS011;3400;48.506;11.692;2023-09-08T05:48:24;6.57;;;5.97;;
6725;SDS011;3400;48.506;11.692;2023-09-08T05:50:52;13.53;;;6.40;;
6725;SDS011;3400;48.506;11.692;2023-09-08T05:53:20;6.23;;;5.63;;
6725;SDS011;3400;48.506;11.692;2023-09-08T05:55:48;5.90;;;5.30;;
6725;SDS011;3400;48.506;11.692;2023-09-08T05:58:16;6.07;;;5.47;;
6725;SDS011;3400;48.506;11.692;2023-09-08T06:00:44;8.20;;;6.03;;
6725;SDS011;3400;48.506;11.692;2023-09-08T06:03:14;7.80;;;6.00;;
6725;SDS011;3400;48.506;11.692;2023-09-08T06:05:42;6.00;;;5.43;;
6725;SDS011;3400;48.506;11.692;2023-09-08T06:08:10;6.20;;;5.60;;
6725;SDS011;3400;48.506;11.692;2023-09-08T06:10:41;7.10;;;6.13;;
6725;SDS011;3400;48.506;11.692;2023-09-08T06:13:09;6.13;;;5.33;;
6725;SDS011;3400;48.506;11.692;2023-09-08T06:15:39;7.17;;;5.40;;
6725;SDS011;3400;48.506;11.692;2023-09-08T06:18:08;8.50;;;5.73;;
6725;SDS011;3400;48.506;11.692;2023-09-08T06:20:41;6.73;;;5.90;;
6725;SDS011;3400;48.506;11.692;2023-09-08T06:23:11;10.03;;;5.70;;
6725;SDS011;3400;48.506;11.692;2023-09-08T06:25:39;6.13;;;5.33;;
6725;SDS011;3400;48.506;11.692;2023-09-08T06:28:07;5.97;;;5.37;;
6725;SDS011;3400;48.506;11.692;2023-09-08T06:30:35;6.50;;;5.60;;
6725;SDS011;3400;48.506;11.692;2023-09-08T06:33:08;7.47;;;6.23;;
6725;SDS011;3400;48.506;11.692;2023-09-08T06:35:38;7.60;;;5.93;;
6725;SDS011;3400;48.506;11.692;2023-09-08T06:38:06;6.20;;;5.60;;
6725;SDS011;3400;48.506;11.692;2023-09-08T06:40:34;5.70;;;5.20;;
6725;SDS011;3400;48.506;11.692;2023-09-08T06:43:02;5.93;;;5.43;;
6725;SDS011;3400;48.506;11.692;2023-09-08T06:45:46;5.60;;;5.10;;
6725;SDS011;3400;48.506;11.692;2023-09-08T06:48:15;7.63;;;6.13;;
6725;SDS011;3400;48.506;11.692;2023-09-08T06:50:44;6.73;;;5.47;;
6725;SDS011;3400;48.506;11.692;2023-09-08T06:53:14;5.53;;;5.10;;
6725;SDS011;3400;48.506;11.692;2023-09-08T06:55:42;6.37;;;5.73;;
6725;SDS011;3400;48.506;11.692;2023-09-08T06:58:10;6.03;;;5.50;;
6725;SDS011;3400;48.506;11.692;2023-09-08T07:00:42;6.33;;;5.53;;
6725;SDS011;3400;48.506;11.692;2023-09-08T07:03:11;5.93;;;5.43;;
6725;SDS011;3400;48.506;11.692;2023-09-08T07:05:39;6.20;;;5.60;;
6725;SDS011;3400;48.506;11.692;2023-09-08T07:08:10;6.10;;;5.60;;
6725;SDS011;3400;48.506;11.692;2023-09-08T07:13:50;6.17;;;5.53;;
6725;SDS011;3400;48.506;11.692;2023-09-08T07:16:19;6.30;;;5.63;;
6725;SDS011;3400;48.506;11.692;2023-09-08T07:18:49;6.50;;;5.87;;
6725;SDS011;3400;48.506;11.692;2023-09-08T07:21:17;6.33;;;5.27;;
6725;SDS011;3400;48.506;11.692;2023-09-08T07:23:46;5.70;;;5.13;;
6725;SDS011;3400;48.506;11.692;2023-09-08T07:26:15;5.93;;;5.40;;
6725;SDS011;3400;48.506;11.692;2023-09-08T07:28:44;5.47;;;4.97;;
6725;SDS011;3400;48.506;11.692;2023-09-08T07:31:14;7.23;;;5.43;;
6725;SDS011;3400;48.506;11.692;2023-09-08T07:33:44;6.83;;;5.40;;
6725;SDS011;3400;48.506;11.692;2023-09-08T07:36:13;7.57;;;5.30;;
6725;SDS011;3400;48.506;11.692;2023-09-08T07:38:44;7.57;;;5.63;;
6725;SDS011;3400;48.506;11.692;2023-09-08T07:41:16;5.50;;;5.00;;
6725;SDS011;3400;48.506;11.692;2023-09-08T07:43:44;7.63;;;6.50;;
6725;SDS011;3400;48.506;11.692;2023-09-08T07:46:14;5.60;;;5.10;;
6725;SDS011;3400;48.506;11.692;2023-09-08T07:48:42;7.23;;;5.70;;
6725;SDS011;3400;48.506;11.692;2023-09-08T07:51:10;5.80;;;5.20;;
6725;SDS011;3400;48.506;11.692;2023-09-08T07:53:38;6.23;;;5.50;;
6725;SDS011;3400;48.506;11.692;2023-09-08T07:56:06;5.83;;;5.17;;
6725;SDS011;3400;48.506;11.692;2023-09-08T07:58:35;6.53;;;5.57;;
6725;SDS011;3400;48.506;11.692;2023-09-08T08:01:04;6.10;;;5.50;;
6725;SDS011;3400;48.506;11.692;2023-09-08T08:03:32;5.80;;;4.97;;
6725;SDS011;3400;48.506;11.692;2023-09-08T08:06:05;7.83;;;5.30;;
6725;SDS011;3400;48.506;11.692;2023-09-08T08:08:37;6.53;;;5.33;;
6725;SDS011;3400;48.506;11.692;2023-09-08T08:11:10;6.47;;;5.87;;
6725;SDS011;3400;48.506;11.692;2023-09-08T08:13:40;5.57;;;5.07;;
6725;SDS011;3400;48.506;11.692;2023-09-08T08:16:09;5.90;;;5.40;;
6725;SDS011;3400;48.506;11.692;2023-09-08T08:18:38;5.77;;;5.27;;
6725;SDS011;3400;48.506;11.692;2023-09-08T08:21:09;6.20;;;5.53;;
6725;SDS011;3400;48.506;11.692;2023-09-08T08:23:37;6.47;;;5.93;;
6725;SDS011;3400;48.506;11.692;2023-09-08T08:26:06;7.97;;;5.87;;
6725;SDS011;3400;48.506;11.692;2023-09-08T08:28:34;7.27;;;5.67;;
6725;SDS011;3400;48.506;11.692;2023-09-08T08:31:04;8.00;;;6.60;;
6725;SDS011;3400;48.506;11.692;2023-09-08T08:33:32;7.43;;;6.47;;
6725;SDS011;3400;48.506;11.692;2023-09-08T08:36:00;6.50;;;5.90;;
6725;SDS011;3400;48.506;11.692;2023-09-08T08:38:29;6.27;;;5.60;;
6725;SDS011;3400;48.506;11.692;2023-09-08T08:41:01;7.57;;;5.77;;
6725;SDS011;3400;48.506;11.692;2023-09-08T08:43:30;6.23;;;5.63;;
6725;SDS011;3400;48.506;11.692;2023-09-08T08:45:58;7.60;;;5.70;;
6725;SDS011;3400;48.506;11.692;2023-09-08T08:48:29;9.07;;;5.70;;
6725;SDS011;3400;48.506;11.692;2023-09-08T08:50:57;7.03;;;5.50;;
6725;SDS011;3400;48.506;11.692;2023-09-08T08:53:25;8.00;;;5.77;;
6725;SDS011;3400;48.506;11.692;2023-09-08T08:55:54;6.20;;;5.60;;
6725;SDS011;3400;48.506;11.692;2023-09-08T08:58:23;6.17;;;5.67;;
6725;SDS011;3400;48.506;11.692;2023-09-08T09:00:53;7.47;;;6.00;;
6725;SDS011;3400;48.506;11.692;2023-09-08T09:03:23;6.83;;;6.23;;
6725;SDS011;3400;48.506;11.692;2023-09-08T09:05:54;6.23;;;5.37;;
6725;SDS011;3400;48.506;11.692;2023-09-08T09:08:22;7.40;;;6.50;;
6725;SDS011;3400;48.506;11.692;2023-09-08T09:10:50;7.20;;;6.50;;
6725;SDS011;3400;48.506;11.692;2023-09-08T09:13:18;7.43;;;5.93;;
6725;SDS011;3400;48.506;11.692;2023-09-08T09:15:48;8.73;;;6.00;;
6725;SDS011;3400;48.506;11.692;2023-09-08T09:18:16;6.20;;;5.60;;
6725;SDS011;3400;48.506;11.692;2023-09-08T09:20:54;6.83;;;6.07;;
6725;SDS011;3400;48.506;11.692;2023-09-08T09:23:28;6.83;;;6.23;;
6725;SDS011;3400;48.506;11.692;2023-09-08T09:25:56;9.30;;;5.33;;
6725;SDS011;3400;48.506;11.692;2023-09-08T09:28:28;7.28;;;5.53;;
6725;SDS011;3400;48.506;11.692;2023-09-08T09:30:56;6.47;;;5.57;;
6725;SDS011;3400;48.506;11.692;2023-09-08T09:33:25;5.65;;;5.13;;
6725;SDS011;3400;48.506;11.692;2023-09-08T09:35:55;7.88;;;5.60;;
6725;SDS011;3400;48.506;11.692;2023-09-08T09:38:26;7.72;;;5.43;;
6725;SDS011;3400;48.506;11.692;2023-09-08T09:41:00;6.82;;;5.75;;
6725;SDS011;3400;48.506;11.692;2023-09-08T09:43:34;5.90;;;5.05;;
6725;SDS011;3400;48.506;11.692;2023-09-08T09:46:02;7.53;;;6.35;;
6725;SDS011;3400;48.506;11.692;2023-09-08T09:48:30;8.55;;;6.25;;
6725;SDS011;3400;48.506;11.692;2023-09-08T09:50:59;7.43;;;5.93;;
6725;SDS011;3400;48.506;11.692;2023-09-08T09:53:42;6.32;;;5.82;;
6725;SDS011;3400;48.506;11.692;2023-09-08T09:56:10;7.35;;;6.07;;
6725;SDS011;3400;48.506;11.692;2023-09-08T09:58:38;8.43;;;5.60;;
6725;SDS011;3400;48.506;11.692;2023-09-08T10:01:07;6.32;;;5.72;;
6725;SDS011;3400;48.506;11.692;2023-09-08T10:03:37;6.25;;;5.65;;
6725;SDS011;3400;48.506;11.692;2023-09-08T10:06:07;6.10;;;5.50;;
6725;SDS011;3400;48.506;11.692;2023-09-08T10:08:35;5.93;;;5.43;;
6725;SDS011;3400;48.506;11.692;2023-09-08T10:11:04;5.72;;;5.22;;
6725;SDS011;3400;48.506;11.692;2023-09-08T10:13:33;6.40;;;5.70;;
6725;SDS011;3400;48.506;11.692;2023-09-08T10:16:05;5.75;;;5.25;;
6725;SDS011;3400;48.506;11.692;2023-09-08T10:18:33;6.03;;;5.53;;
6725;SDS011;3400;48.506;11.692;2023-09-08T10:21:03;6.50;;;6.00;;
6725;SDS011;3400;48.506;11.692;2023-09-08T10:23:36;6.82;;;4.97;;
6725;SDS011;3400;48.506;11.692;2023-09-08T10:26:06;5.82;;;5.15;;
6725;SDS011;3400;48.506;11.692;2023-09-08T10:28:36;6.20;;;5.47;;
6725;SDS011;3400;48.506;11.692;2023-09-08T10:31:05;5.97;;;5.50;;
6725;SDS011;3400;48.506;11.692;2023-09-08T10:33:33;7.20;;;5.80;;
6725;SDS011;3400;48.506;11.692;2023-09-08T10:36:02;6.93;;;6.32;;
6725;SDS011;3400;48.506;11.692;2023-09-08T10:38:31;6.18;;;5.65;;
6725;SDS011;3400;48.506;11.692;2023-09-08T10:43:48;6.13;;;5.63;;
6725;SDS011;3400;48.506;11.692;2023-09-08T10:46:22;7.32;;;6.32;;
6725;SDS011;3400;48.506;11.692;2023-09-08T10:48:50;5.93;;;5.47;;
6725;SDS011;3400;48.506;11.692;2023-09-08T10:51:20;5.57;;;5.10;;
6725;SDS011;3400;48.506;11.692;2023-09-08T10:53:49;5.68;;;5.28;;
6725;SDS011;3400;48.506;11.692;2023-09-08T10:56:17;6.22;;;5.63;;
6725;SDS011;3400;48.506;11.692;2023-09-08T10:58:52;9.23;;;5.85;;
6725;SDS011;3400;48.506;11.692;2023-09-08T11:01:20;7.85;;;5.75;;
6725;SDS011;3400;48.506;11.692;2023-09-08T11:03:52;5.80;;;5.10;;
6725;SDS011;3400;48.506;11.692;2023-09-08T11:06:20;5.80;;;5.28;;
6725;SDS011;3400;48.506;11.692;2023-09-08T11:08:49;10.70;;;5.78;;
6725;SDS011;3400;48.506;11.692;2023-09-08T11:11:21;8.15;;;6.00;;
6725;SDS011;3400;48.506;11.692;2023-09-08T11:13:50;6.28;;;5.68;;
6725;SDS011;3400;48.506;11.692;2023-09-08T11:16:18;5.90;;;5.40;;
6725;SDS011;3400;48.506;11.692;2023-09-08T11:18:50;6.22;;;5.50;;
6725;SDS011;3400;48.506;11.692;2023-09-08T11:21:18;5.43;;;4.93;;
6725;SDS011;3400;48.506;11.692;2023-09-08T11:23:46;7.15;;;4.90;;
6725;SDS011;3400;48.506;11.692;2023-09-08T11:26:14;6.18;;;5.28;;
6725;SDS011;3400;48.506;11.692;2023-09-08T11:28:42;5.70;;;5.20;;
6725;SDS011;3400;48.506;11.692;2023-09-08T11:31:14;5.30;;;4.90;;
6725;SDS011;3400;48.506;11.692;2023-09-08T11:33:42;5.63;;;5.13;;
6725;SDS011;3400;48.506;11.692;2023-09-08T11:36:11;5.53;;;5.13;;
6725;SDS011;3400;48.506;11.692;2023-09-08T11:38:41;8.63;;;5.38;;
6725;SDS011;3400;48.506;11.692;2023-09-08T11:41:10;6.22;;;4.78;;
6725;SDS011;3400;48.506;11.692;2023-09-08T11:43:38;6.80;;;5.20;;
6725;SDS011;3400;48.506;11.692;2023-09-08T11:46:06;5.45;;;4.95;;
6725;SDS011;3400;48.506;11.692;2023-09-08T11:48:35;5.47;;;5.07;;
6725;SDS011;3400;48.506;11.692;2023-09-08T11:51:03;6.20;;;5.70;;
6725;SDS011;3400;48.506;11.692;2023-09-08T11:53:31;5.80;;;5.30;;
6725;SDS011;3400;48.506;11.692;2023-09-08T11:55:59;5.57;;;5.18;;
6725;SDS011;3400;48.506;11.692;2023-09-08T11:58:27;5.90;;;5.40;;
6725;SDS011;3400;48.506;11.692;2023-09-08T12:00:55;5.30;;;4.90;;
6725;SDS011;3400;48.506;11.692;2023-09-08T12:03:23;6.00;;;5.13;;
6725;SDS011;3400;48.506;11.692;2023-09-08T12:05:52;6.10;;;5.53;;
6725;SDS011;3400;48.506;11.692;2023-09-08T12:08:20;5.40;;;4.93;;
6725;SDS011;3400;48.506;11.692;2023-09-08T12:10:48;5.80;;;5.30;;
6725;SDS011;3400;48.506;11.692;2023-09-08T12:13:20;5.93;;;5.03;;
6725;SDS011;3400;48.506;11.692;2023-09-08T12:15:48;7.15;;;5.78;;
6725;SDS011;3400;48.506;11.692;2023-09-08T12:18:16;5.55;;;5.05;;
6725;SDS011;3400;48.506;11.692;2023-09-08T12:20:44;6.65;;;5.40;;
6725;SDS011;3400;48.506;11.692;2023-09-08T12:23:17;8.32;;;5.95;;
6725;SDS011;3400;48.506;11.692;2023-09-08T12:25:45;5.50;;;5.10;;
6725;SDS011;3400;48.506;11.692;2023-09-08T12:28:13;7.25;;;5.22;;
6725;SDS011;3400;48.506;11.692;2023-09-08T12:30:41;5.35;;;4.85;;
6725;SDS011;3400;48.506;11.692;2023-09-08T12:33:09;8.05;;;5.13;;
6725;SDS011;3400;48.506;11.692;2023-09-08T12:35:39;5.75;;;5.25;;
6725;SDS011;3400;48.506;11.692;2023-09-08T12:38:07;5.50;;;5.03;;
6725;SDS011;3400;48.506;11.692;2023-09-08T12:40:36;5.22;;;4.82;;
6725;SDS011;3400;48.506;11.692;2023-09-08T12:43:05;5.68;;;5.15;;
6725;SDS011;3400;48.506;11.692;2023-09-08T12:45:33;6.15;;;5.55;;
6725;SDS011;3400;48.506;11.692;2023-09-08T12:48:01;5.82;;;5.22;;
6725;SDS011;3400;48.506;11.692;2023-09-08T12:50:29;6.63;;;5.57;;
6725;SDS011;3400;48.506;11.692;2023-09-08T12:52:57;7.88;;;5.80;;
6725;SDS011;3400;48.506;11.692;2023-09-08T12:55:25;9.18;;;5.00;;
6725;SDS011;3400;48.506;11.692;2023-09-08T12:57:54;7.18;;;5.53;;
6725;SDS011;3400;48.506;11.692;2023-09-08T13:00:23;5.80;;;5.40;;
6725;SDS011;3400;48.506;11.692;2023-09-08T13:02:51;5.97;;;5.57;;
6725;SDS011;3400;48.506;11.692;2023-09-08T13:05:19;5.70;;;5.30;;
6725;SDS011;3400;48.506;11.692;2023-09-08T13:07:47;5.45;;;4.93;;
6725;SDS011;3400;48.506;11.692;2023-09-08T13:10:15;5.60;;;4.93;;
6725;SDS011;3400;48.506;11.692;2023-09-08T13:12:43;6.00;;;5.18;;
6725;SDS011;3400;48.506;11.692;2023-09-08T13:15:12;7.47;;;5.32;;
6725;SDS011;3400;48.506;11.692;2023-09-08T13:17:40;8.48;;;6.25;;
6725;SDS011;3400;48.506;11.692;2023-09-08T13:20:08;6.18;;;5.57;;
6725;SDS011;3400;48.506;11.692;2023-09-08T13:22:36;5.60;;;5.10;;
6725;SDS011;3400;48.506;11.692;2023-09-08T13:25:05;7.18;;;5.10;;
6725;SDS011;3400;48.506;11.692;2023-09-08T13:27:33;9.40;;;5.43;;
6725;SDS011;3400;48.506;11.692;2023-09-08T13:30:07;5.90;;;5.30;;
6725;SDS011;3400;48.506;11.692;2023-09-08T13:32:37;6.20;;;5.70;;
6725;SDS011;3400;48.506;11.692;2023-09-08T13:35:05;5.82;;;5.32;;
6725;SDS011;3400;48.506;11.692;2023-09-08T13:37:33;6.35;;;4.75;;
6725;SDS011;3400;48.506;11.692;2023-09-08T13:40:01;6.85;;;6.03;;
6725;SDS011;3400;48.506;11.692;2023-09-08T13:42:29;6.28;;;5.65;;
6725;SDS011;3400;48.506;11.692;2023-09-08T13:44:57;5.60;;;5.20;;
6725;SDS011;3400;48.506;11.692;2023-09-08T13:47:25;5.32;;;4.95;;
6725;SDS011;3400;48.506;11.692;2023-09-08T13:49:54;8.02;;;5.80;;
6725;SDS011;3400;48.506;11.692;2023-09-08T13:52:22;5.93;;;5.43;;
6725;SDS011;3400;48.506;11.692;2023-09-08T13:54:50;6.05;;;5.45;;
6725;SDS011;3400;48.506;11.692;2023-09-08T13:57:18;6.22;;;5.70;;
6725;SDS011;3400;48.506;11.692;2023-09-08T13:59:47;5.80;;;5.25;;
6725;SDS011;3400;48.506;11.692;2023-09-08T14:02:15;6.25;;;5.75;;
6725;SDS011;3400;48.506;11.692;2023-09-08T14:04:43;6.57;;;6.03;;
6725;SDS011;3400;48.506;11.692;2023-09-08T14:07:12;6.38;;;5.80;;
6725;SDS011;3400;48.506;11.692;2023-09-08T14:09:42;6.65;;;5.80;;
6725;SDS011;3400;48.506;11.692;2023-09-08T14:12:09;6.43;;;5.93;;
6725;SDS011;3400;48.506;11.692;2023-09-08T14:14:40;7.13;;;6.30;;
6725;SDS011;3400;48.506;11.692;2023-09-08T14:17:07;6.43;;;5.93;;
6725;SDS011;3400;48.506;11.692;2023-09-08T14:19:35;6.13;;;5.63;;
6725;SDS011;3400;48.506;11.692;2023-09-08T14:22:03;5.95;;;5.40;;
6725;SDS011;3400;48.506;11.692;2023-09-08T14:24:33;6.28;;;5.68;;
6725;SDS011;3400;48.506;11.692;2023-09-08T14:27:01;6.10;;;5.60;;
6725;SDS011;3400;48.506;11.692;2023-09-08T14:29:29;6.78;;;5.82;;
6725;SDS011;3400;48.506;11.692;2023-09-08T14:31:57;8.45;;;5.80;;
6725;SDS011;3400;48.506;11.692;2023-09-08T14:34:25;6.15;;;5.55;;
6725;SDS011;3400;48.506;11.692;2023-09-08T14:36:53;6.75;;;5.50;;
6725;SDS011;3400;48.506;11.692;2023-09-08T14:39:21;8.52;;;5.78;;
6725;SDS011;3400;48.506;11.692;2023-09-08T14:41:51;7.43;;;5.57;;
6725;SDS011;3400;48.506;11.692;2023-09-08T14:44:20;5.93;;;5.43;;
6725;SDS011;3400;48.506;11.692;2023-09-08T14:46:48;5.40;;;4.95;;
6725;SDS011;3400;48.506;11.692;2023-09-08T14:49:17;5.80;;;5.22;;
6725;SDS011;3400;48.506;11.692;2023-09-08T14:51:46;5.53;;;5.03;;
6725;SDS011;3400;48.506;11.692;2023-09-08T14:54:14;6.05;;;5.55;;
6725;SDS011;3400;48.506;11.692;2023-09-08T14:56:43;6.40;;;5.80;;
6725;SDS011;3400;48.506;11.692;2023-09-08T14:59:12;10.68;;;5.88;;
6725;SDS011;3400;48.506;11.692;2023-09-08T15:01:40;6.35;;;5.85;;
6725;SDS011;3400;48.506;11.692;2023-09-08T15:04:10;7.15;;;6.35;;
6725;SDS011;3400;48.506;11.692;2023-09-08T15:06:38;5.97;;;5.57;;
6725;SDS011;3400;48.506;11.692;2023-09-08T15:09:06;11.00;;;10.00;;
6725;SDS011;3400;48.506;11.692;2023-09-08T15:11:34;13.40;;;11.52;;
6725;SDS011;3400;48.506;11.692;2023-09-08T15:14:03;8.18;;;7.15;;
6725;SDS011;3400;48.506;11.692;2023-09-08T15:16:33;7.68;;;6.97;;